DLH323 LICJ-EDDF
Flight info
| Callsign | DLH323 |
|---|---|
| Flight time | 2h 4m |
| Altitude | 38000 |
| Route | LURON DCT DORAS DCT NIKMA DCT UNIMI L12 MOGTI Q163 OLASO/N0422F320 Q163 HAFUN/N0375F240 Q163 ETASA T163 SPESA SPESA4B |
| Aircraft | A321/M-SDE2E3FGIJ1LORWXYZ/HB1 |
Departure
| Time | 2026-05-04 15:12 |
|---|---|
| Airport | Falcone–Borsellino Airport (LICJ) |
Arrival
| Time | 2026-05-04 17:16 |
|---|---|
| Airport | Frankfurt Main Airport (EDDF) |
| Time | Latitude | Longitude | Altitude | Speed | Heading |
|---|---|---|---|---|---|
| 2026-05-04 14:46 | 38.18527 | 13.10560 | 65 ft | 0 kts | 337° |
| 2026-05-04 15:03 | 38.18520 | 13.10563 | 56 ft | 4 kts | 335° |
| 2026-05-04 15:03 | 38.18496 | 13.10580 | 65 ft | 4 kts | 321° |
| 2026-05-04 15:04 | 38.18479 | 13.10604 | 63 ft | 4 kts | 292° |
| 2026-05-04 15:04 | 38.18476 | 13.10630 | 59 ft | 1 kts | 247° |
| 2026-05-04 15:04 | 38.18478 | 13.10636 | 62 ft | 0 kts | 247° |
| 2026-05-04 15:06 | 38.18478 | 13.10634 | 65 ft | 2 kts | 252° |
| 2026-05-04 15:06 | 38.18474 | 13.10621 | 60 ft | 4 kts | 251° |
| 2026-05-04 15:07 | 38.18387 | 13.10499 | 59 ft | 14 kts | 201° |
| 2026-05-04 15:07 | 38.18314 | 13.10430 | 59 ft | 14 kts | 245° |
| 2026-05-04 15:07 | 38.18245 | 13.10369 | 59 ft | 13 kts | 175° |
| 2026-05-04 15:07 | 38.18188 | 13.10290 | 66 ft | 13 kts | 245° |
| 2026-05-04 15:08 | 38.18150 | 13.10176 | 63 ft | 15 kts | 246° |
| 2026-05-04 15:08 | 38.18105 | 13.10044 | 60 ft | 17 kts | 246° |
| 2026-05-04 15:08 | 38.18053 | 13.09889 | 60 ft | 20 kts | 246° |
| 2026-05-04 15:08 | 38.17996 | 13.09722 | 62 ft | 21 kts | 247° |
| 2026-05-04 15:09 | 38.17941 | 13.09553 | 61 ft | 21 kts | 246° |
| 2026-05-04 15:09 | 38.17881 | 13.09378 | 63 ft | 22 kts | 246° |
| 2026-05-04 15:09 | 38.17825 | 13.09210 | 66 ft | 21 kts | 248° |
| 2026-05-04 15:10 | 38.17663 | 13.08881 | 62 ft | 18 kts | 217° |
| 2026-05-04 15:10 | 38.17560 | 13.08783 | 64 ft | 18 kts | 216° |
| 2026-05-04 15:10 | 38.17498 | 13.08848 | 70 ft | 0 kts | 66° |
| 2026-05-04 15:11 | 38.17509 | 13.08880 | 64 ft | 19 kts | 67° |
| 2026-05-04 15:11 | 38.17652 | 13.09312 | 67 ft | 87 kts | 67° |
| 2026-05-04 15:11 | 38.17973 | 13.10262 | 67 ft | 144 kts | 67° |
| 2026-05-04 15:11 | 38.18416 | 13.11589 | 273 ft | 170 kts | 67° |
| 2026-05-04 15:12 | 38.18862 | 13.12980 | 963 ft | 171 kts | 67° |
| 2026-05-04 15:12 | 38.19313 | 13.14405 | 1568 ft | 178 kts | 67° |
| 2026-05-04 15:12 | 38.19793 | 13.15930 | 2049 ft | 192 kts | 68° |
| 2026-05-04 15:12 | 38.20330 | 13.17572 | 2455 ft | 213 kts | 65° |
| 2026-05-04 15:13 | 38.21131 | 13.19287 | 2813 ft | 238 kts | 50° |
| 2026-05-04 15:13 | 38.22438 | 13.20693 | 3303 ft | 254 kts | 31° |
| 2026-05-04 15:13 | 38.24066 | 13.21721 | 3791 ft | 266 kts | 22° |
| 2026-05-04 15:13 | 38.25802 | 13.22571 | 4443 ft | 269 kts | 20° |
| 2026-05-04 15:14 | 38.27549 | 13.23372 | 5090 ft | 271 kts | 20° |
| 2026-05-04 15:14 | 38.29330 | 13.24205 | 5721 ft | 275 kts | 20° |
| 2026-05-04 15:14 | 38.31141 | 13.25088 | 6362 ft | 280 kts | 21° |
| 2026-05-04 15:14 | 38.32961 | 13.26009 | 7032 ft | 282 kts | 22° |
| 2026-05-04 15:15 | 38.34786 | 13.26944 | 7631 ft | 282 kts | 22° |
| 2026-05-04 15:15 | 38.35999 | 13.27580 | 7988 ft | 286 kts | 22° |
| 2026-05-04 15:15 | 38.37858 | 13.28572 | 8597 ft | 291 kts | 22° |
| 2026-05-04 15:16 | 38.41771 | 13.29908 | 9788 ft | 294 kts | 359° |
| 2026-05-04 15:16 | 38.43773 | 13.29560 | 10392 ft | 295 kts | 342° |
| 2026-05-04 15:16 | 38.47906 | 13.27823 | 10736 ft | 331 kts | 340° |
| 2026-05-04 15:17 | 38.50145 | 13.26860 | 10873 ft | 347 kts | 340° |
| 2026-05-04 15:17 | 38.54836 | 13.24858 | 11733 ft | 359 kts | 340° |
| 2026-05-04 15:17 | 38.57208 | 13.23851 | 12320 ft | 360 kts | 340° |
| 2026-05-04 15:18 | 38.59563 | 13.22850 | 12893 ft | 361 kts | 340° |
| 2026-05-04 15:18 | 38.61955 | 13.21835 | 13433 ft | 363 kts | 340° |
| 2026-05-04 15:18 | 38.64364 | 13.20810 | 13951 ft | 366 kts | 340° |
| 2026-05-04 15:19 | 38.69216 | 13.18740 | 14940 ft | 370 kts | 339° |
| 2026-05-04 15:19 | 38.71665 | 13.17689 | 15428 ft | 372 kts | 339° |
| 2026-05-04 15:19 | 38.76608 | 13.15571 | 16396 ft | 376 kts | 339° |
| 2026-05-04 15:20 | 38.79096 | 13.14504 | 16853 ft | 378 kts | 339° |
| 2026-05-04 15:20 | 38.81571 | 13.13441 | 17286 ft | 380 kts | 339° |
| 2026-05-04 15:20 | 38.84095 | 13.12362 | 17740 ft | 382 kts | 339° |
| 2026-05-04 15:20 | 38.86709 | 13.11575 | 18144 ft | 388 kts | 349° |
| 2026-05-04 15:21 | 38.89387 | 13.11312 | 18526 ft | 392 kts | 353° |
| 2026-05-04 15:21 | 38.92118 | 13.11115 | 18940 ft | 393 kts | 353° |
| 2026-05-04 15:21 | 38.97609 | 13.10718 | 19697 ft | 396 kts | 353° |
| 2026-05-04 15:22 | 39.00374 | 13.10512 | 20069 ft | 398 kts | 353° |
| 2026-05-04 15:22 | 39.03148 | 13.10302 | 20441 ft | 400 kts | 353° |
| 2026-05-04 15:22 | 39.08705 | 13.09875 | 21161 ft | 404 kts | 353° |
| 2026-05-04 15:23 | 39.11521 | 13.09658 | 21521 ft | 406 kts | 353° |
| 2026-05-04 15:23 | 39.14350 | 13.09446 | 21878 ft | 407 kts | 353° |
| 2026-05-04 15:23 | 39.17187 | 13.09236 | 22222 ft | 409 kts | 353° |
| 2026-05-04 15:23 | 39.20033 | 13.09024 | 22564 ft | 411 kts | 353° |
| 2026-05-04 15:24 | 39.25769 | 13.08596 | 23229 ft | 414 kts | 353° |
| 2026-05-04 15:24 | 39.31508 | 13.08152 | 23878 ft | 417 kts | 353° |
| 2026-05-04 15:25 | 39.34415 | 13.07924 | 24204 ft | 418 kts | 353° |
| 2026-05-04 15:25 | 39.37326 | 13.07700 | 24512 ft | 420 kts | 353° |
| 2026-05-04 15:25 | 39.40243 | 13.07481 | 24820 ft | 421 kts | 353° |
| 2026-05-04 15:26 | 39.46112 | 13.07048 | 25441 ft | 423 kts | 352° |
| 2026-05-04 15:26 | 39.49059 | 13.06827 | 25752 ft | 423 kts | 352° |
| 2026-05-04 15:26 | 39.54950 | 13.06381 | 26318 ft | 425 kts | 352° |
| 2026-05-04 15:27 | 39.57873 | 13.06155 | 26602 ft | 426 kts | 352° |
| 2026-05-04 15:27 | 39.63718 | 13.05069 | 27148 ft | 424 kts | 345° |
| 2026-05-04 15:28 | 39.69539 | 13.03668 | 27685 ft | 425 kts | 345° |
| 2026-05-04 15:28 | 39.72453 | 13.02969 | 27922 ft | 426 kts | 345° |
| 2026-05-04 15:28 | 39.78299 | 13.01562 | 28384 ft | 428 kts | 345° |
| 2026-05-04 15:29 | 39.81226 | 13.00853 | 28591 ft | 428 kts | 345° |
| 2026-05-04 15:30 | 39.92922 | 12.98023 | 29527 ft | 426 kts | 345° |
| 2026-05-04 15:30 | 40.01639 | 12.95905 | 30321 ft | 422 kts | 344° |
| 2026-05-04 15:31 | 40.07416 | 12.94494 | 30714 ft | 423 kts | 344° |
| 2026-05-04 15:31 | 40.10274 | 12.93795 | 30923 ft | 422 kts | 344° |
| 2026-05-04 15:32 | 40.18938 | 12.91662 | 31579 ft | 421 kts | 343° |
| 2026-05-04 15:32 | 40.24687 | 12.90232 | 32020 ft | 419 kts | 344° |
| 2026-05-04 15:33 | 40.30366 | 12.88817 | 32438 ft | 417 kts | 343° |
| 2026-05-04 15:34 | 40.38911 | 12.86693 | 33053 ft | 415 kts | 343° |
| 2026-05-04 15:34 | 40.41752 | 12.85979 | 33235 ft | 414 kts | 343° |
| 2026-05-04 15:34 | 40.47365 | 12.84564 | 33614 ft | 413 kts | 343° |
| 2026-05-04 15:35 | 40.53018 | 12.83144 | 33965 ft | 412 kts | 343° |
| 2026-05-04 15:35 | 40.55841 | 12.82437 | 34112 ft | 412 kts | 343° |
| 2026-05-04 15:36 | 40.64268 | 12.80313 | 34147 ft | 410 kts | 343° |
| 2026-05-04 15:36 | 40.69888 | 12.78896 | 34157 ft | 411 kts | 343° |
| 2026-05-04 15:37 | 40.75478 | 12.77493 | 34156 ft | 411 kts | 343° |
| 2026-05-04 15:37 | 40.81108 | 12.76075 | 34156 ft | 412 kts | 343° |
| 2026-05-04 15:38 | 40.86756 | 12.74640 | 34348 ft | 413 kts | 343° |
| 2026-05-04 15:38 | 40.89584 | 12.73920 | 34508 ft | 413 kts | 343° |
| 2026-05-04 15:38 | 40.92369 | 12.73208 | 34649 ft | 413 kts | 343° |
| 2026-05-04 15:39 | 40.95197 | 12.72489 | 34774 ft | 414 kts | 343° |
| 2026-05-04 15:39 | 40.98026 | 12.71772 | 34934 ft | 413 kts | 343° |
| 2026-05-04 15:39 | 41.03674 | 12.70340 | 35232 ft | 413 kts | 343° |
| 2026-05-04 15:40 | 41.06508 | 12.69617 | 35366 ft | 414 kts | 343° |
| 2026-05-04 15:40 | 41.09334 | 12.68893 | 35501 ft | 414 kts | 343° |
| 2026-05-04 15:40 | 41.12166 | 12.68164 | 35648 ft | 414 kts | 343° |
| 2026-05-04 15:40 | 41.14953 | 12.67445 | 35885 ft | 411 kts | 343° |
| 2026-05-04 15:41 | 41.17756 | 12.66724 | 36088 ft | 410 kts | 343° |
| 2026-05-04 15:41 | 41.23395 | 12.65278 | 36156 ft | 414 kts | 343° |
| 2026-05-04 15:42 | 41.29072 | 12.63837 | 36156 ft | 414 kts | 343° |
| 2026-05-04 15:42 | 41.34730 | 12.62382 | 36156 ft | 415 kts | 343° |
| 2026-05-04 15:43 | 41.40407 | 12.60919 | 36156 ft | 414 kts | 343° |
| 2026-05-04 15:43 | 41.46033 | 12.59475 | 36157 ft | 414 kts | 343° |
| 2026-05-04 15:44 | 41.51712 | 12.58000 | 36159 ft | 415 kts | 343° |
| 2026-05-04 15:44 | 41.57387 | 12.56523 | 36161 ft | 416 kts | 343° |
| 2026-05-04 15:45 | 41.63053 | 12.55059 | 36160 ft | 417 kts | 343° |
| 2026-05-04 15:45 | 41.68752 | 12.53580 | 36158 ft | 417 kts | 342° |
| 2026-05-04 15:46 | 41.74464 | 12.52094 | 36159 ft | 417 kts | 342° |
| 2026-05-04 15:46 | 41.80167 | 12.50605 | 36158 ft | 417 kts | 342° |
| 2026-05-04 15:47 | 41.85862 | 12.49116 | 36160 ft | 417 kts | 342° |
| 2026-05-04 15:47 | 41.91516 | 12.47639 | 36158 ft | 417 kts | 342° |
| 2026-05-04 15:48 | 41.97215 | 12.46147 | 36157 ft | 417 kts | 342° |
| 2026-05-04 15:48 | 42.05756 | 12.43895 | 36154 ft | 417 kts | 342° |
| 2026-05-04 15:49 | 42.11472 | 12.42392 | 36150 ft | 418 kts | 342° |
| 2026-05-04 15:49 | 42.17191 | 12.40882 | 36154 ft | 419 kts | 342° |
| 2026-05-04 15:50 | 42.22890 | 12.39371 | 36159 ft | 420 kts | 342° |
| 2026-05-04 15:50 | 42.28627 | 12.37852 | 36161 ft | 420 kts | 342° |
| 2026-05-04 15:51 | 42.34360 | 12.36328 | 36166 ft | 420 kts | 342° |
| 2026-05-04 15:51 | 42.40099 | 12.34796 | 36168 ft | 420 kts | 342° |
| 2026-05-04 15:52 | 42.45837 | 12.33265 | 36162 ft | 421 kts | 342° |
| 2026-05-04 15:52 | 42.51550 | 12.31742 | 36162 ft | 422 kts | 343° |
| 2026-05-04 15:53 | 42.57309 | 12.30211 | 36159 ft | 422 kts | 343° |
| 2026-05-04 15:53 | 42.63075 | 12.28668 | 36158 ft | 422 kts | 343° |
| 2026-05-04 15:54 | 42.68851 | 12.27118 | 36156 ft | 423 kts | 343° |
| 2026-05-04 15:54 | 42.74640 | 12.25566 | 36153 ft | 424 kts | 343° |
| 2026-05-04 15:55 | 42.80399 | 12.24010 | 36150 ft | 425 kts | 343° |
| 2026-05-04 15:55 | 42.86202 | 12.22436 | 36143 ft | 425 kts | 343° |
| 2026-05-04 15:56 | 42.92029 | 12.20863 | 36136 ft | 427 kts | 343° |
| 2026-05-04 15:56 | 42.97861 | 12.19279 | 36131 ft | 428 kts | 343° |
| 2026-05-04 15:57 | 43.03670 | 12.17692 | 36128 ft | 429 kts | 343° |
| 2026-05-04 15:57 | 43.09538 | 12.16094 | 36130 ft | 430 kts | 344° |
| 2026-05-04 15:58 | 43.15412 | 12.14496 | 36122 ft | 431 kts | 344° |
| 2026-05-04 15:58 | 43.21297 | 12.12893 | 36114 ft | 432 kts | 344° |
| 2026-05-04 15:59 | 43.27216 | 12.11276 | 36113 ft | 433 kts | 344° |
| 2026-05-04 15:59 | 43.33100 | 12.09671 | 36112 ft | 434 kts | 344° |
| 2026-05-04 16:00 | 43.39034 | 12.08039 | 36109 ft | 435 kts | 344° |
| 2026-05-04 16:00 | 43.44992 | 12.06395 | 36104 ft | 436 kts | 344° |
| 2026-05-04 16:01 | 43.50961 | 12.04749 | 36099 ft | 437 kts | 344° |
| 2026-05-04 16:01 | 43.56900 | 12.03103 | 36102 ft | 439 kts | 344° |
| 2026-05-04 16:02 | 43.62894 | 12.01443 | 36106 ft | 440 kts | 345° |
| 2026-05-04 16:03 | 43.71917 | 11.98945 | 36104 ft | 441 kts | 344° |
| 2026-05-04 16:03 | 43.77940 | 11.97265 | 36105 ft | 442 kts | 344° |
| 2026-05-04 16:04 | 43.83971 | 11.95572 | 36103 ft | 443 kts | 344° |
| 2026-05-04 16:04 | 43.93022 | 11.93044 | 36101 ft | 443 kts | 345° |
| 2026-05-04 16:05 | 43.99066 | 11.91347 | 36104 ft | 443 kts | 345° |
| 2026-05-04 16:06 | 44.07120 | 11.89083 | 36104 ft | 443 kts | 345° |
| 2026-05-04 16:07 | 44.19180 | 11.85683 | 36104 ft | 443 kts | 344° |
| 2026-05-04 16:08 | 44.31290 | 11.82256 | 36104 ft | 444 kts | 345° |
| 2026-05-04 16:09 | 44.46394 | 11.77950 | 36098 ft | 444 kts | 345° |
| 2026-05-04 16:10 | 44.58505 | 11.74490 | 36089 ft | 444 kts | 345° |
| 2026-05-04 16:11 | 44.70437 | 11.71075 | 36082 ft | 445 kts | 345° |
| 2026-05-04 16:12 | 44.88639 | 11.65804 | 36076 ft | 446 kts | 345° |
| 2026-05-04 16:13 | 45.00770 | 11.62272 | 36072 ft | 446 kts | 345° |
| 2026-05-04 16:14 | 45.12960 | 11.58727 | 36074 ft | 448 kts | 345° |
| 2026-05-04 16:16 | 45.28230 | 11.54272 | 36080 ft | 449 kts | 345° |
| 2026-05-04 16:17 | 45.43571 | 11.49746 | 36084 ft | 450 kts | 345° |
| 2026-05-04 16:18 | 45.55796 | 11.46125 | 36088 ft | 449 kts | 345° |
| 2026-05-04 16:19 | 45.71122 | 11.41573 | 36091 ft | 450 kts | 345° |
| 2026-05-04 16:20 | 45.86449 | 11.36984 | 36134 ft | 452 kts | 345° |
| 2026-05-04 16:22 | 46.01797 | 11.32351 | 36177 ft | 451 kts | 345° |
| 2026-05-04 16:23 | 46.20239 | 11.26766 | 36169 ft | 453 kts | 345° |
| 2026-05-04 16:25 | 46.38707 | 11.21145 | 36089 ft | 451 kts | 345° |
| 2026-05-04 16:26 | 46.60240 | 11.14526 | 36043 ft | 453 kts | 345° |
| 2026-05-04 16:28 | 46.75696 | 11.09755 | 36060 ft | 454 kts | 345° |
| 2026-05-04 16:29 | 46.96406 | 10.99575 | 36047 ft | 449 kts | 332° |
| 2026-05-04 16:31 | 47.10687 | 10.90307 | 36034 ft | 450 kts | 333° |
| 2026-05-04 16:32 | 47.27875 | 10.78982 | 36030 ft | 451 kts | 332° |
| 2026-05-04 16:33 | 47.39302 | 10.71434 | 36018 ft | 451 kts | 333° |
| 2026-05-04 16:34 | 47.48038 | 10.66235 | 36013 ft | 453 kts | 335° |
| 2026-05-04 16:35 | 47.65612 | 10.56085 | 36003 ft | 452 kts | 334° |
| 2026-05-04 16:36 | 47.74410 | 10.50861 | 35998 ft | 453 kts | 335° |
| 2026-05-04 16:37 | 47.83178 | 10.45703 | 35997 ft | 453 kts | 334° |
| 2026-05-04 16:38 | 47.94916 | 10.38731 | 35990 ft | 454 kts | 334° |
| 2026-05-04 16:39 | 48.09562 | 10.29974 | 35992 ft | 454 kts | 334° |
| 2026-05-04 16:40 | 48.21144 | 10.22540 | 35991 ft | 449 kts | 323° |
| 2026-05-04 16:41 | 48.33294 | 10.08091 | 35971 ft | 445 kts | 317° |
| 2026-05-04 16:43 | 48.45324 | 9.93458 | 35973 ft | 446 kts | 317° |
| 2026-05-04 16:43 | 48.52552 | 9.84598 | 35974 ft | 446 kts | 316° |
| 2026-05-04 16:45 | 48.66807 | 9.66617 | 35987 ft | 445 kts | 314° |
| 2026-05-04 16:46 | 48.78397 | 9.51168 | 35993 ft | 445 kts | 315° |
| 2026-05-04 16:47 | 48.87726 | 9.38804 | 35991 ft | 445 kts | 314° |
| 2026-05-04 16:48 | 48.95461 | 9.30864 | 35995 ft | 453 kts | 329° |
| 2026-05-04 16:48 | 48.98294 | 9.28739 | 35997 ft | 453 kts | 329° |
| 2026-05-04 16:49 | 49.09548 | 9.20159 | 35665 ft | 451 kts | 329° |
| 2026-05-04 16:50 | 49.15187 | 9.15922 | 34318 ft | 453 kts | 334° |
| 2026-05-04 16:50 | 49.21387 | 9.13625 | 32908 ft | 465 kts | 352° |
| 2026-05-04 16:51 | 49.27868 | 9.14074 | 31357 ft | 472 kts | 2° |
| 2026-05-04 16:51 | 49.31145 | 9.14545 | 30679 ft | 471 kts | 2° |
| 2026-05-04 16:51 | 49.37632 | 9.15482 | 29571 ft | 463 kts | 2° |
| 2026-05-04 16:52 | 49.44008 | 9.16401 | 28455 ft | 455 kts | 2° |
| 2026-05-04 16:52 | 49.47151 | 9.16854 | 27870 ft | 452 kts | 2° |
| 2026-05-04 16:53 | 49.53332 | 9.17744 | 26704 ft | 445 kts | 2° |
| 2026-05-04 16:53 | 49.62447 | 9.19641 | 24938 ft | 439 kts | 14° |
| 2026-05-04 16:54 | 49.65299 | 9.21299 | 24350 ft | 437 kts | 24° |
| 2026-05-04 16:55 | 49.75265 | 9.30833 | 23113 ft | 398 kts | 19° |
| 2026-05-04 16:55 | 49.79552 | 9.32761 | 22634 ft | 375 kts | 12° |
| 2026-05-04 16:56 | 49.85263 | 9.35027 | 21855 ft | 352 kts | 12° |
| 2026-05-04 16:56 | 49.91420 | 9.37469 | 21071 ft | 337 kts | 12° |
| 2026-05-04 16:57 | 49.93686 | 9.38360 | 20669 ft | 335 kts | 12° |
| 2026-05-04 16:57 | 49.98227 | 9.40122 | 19462 ft | 335 kts | 12° |
| 2026-05-04 16:58 | 50.04836 | 9.39452 | 17644 ft | 319 kts | 335° |
| 2026-05-04 16:58 | 50.06878 | 9.38129 | 17053 ft | 317 kts | 334° |
| 2026-05-04 16:59 | 50.10908 | 9.35472 | 15660 ft | 313 kts | 334° |
| 2026-05-04 17:00 | 50.17346 | 9.27973 | 12753 ft | 284 kts | 295° |
| 2026-05-04 17:00 | 50.20070 | 9.19859 | 10507 ft | 276 kts | 294° |
| 2026-05-04 17:01 | 50.21770 | 9.14510 | 9010 ft | 275 kts | 294° |
| 2026-05-04 17:01 | 50.23407 | 9.09133 | 7514 ft | 273 kts | 294° |
| 2026-05-04 17:02 | 50.24951 | 9.03995 | 6982 ft | 257 kts | 294° |
| 2026-05-04 17:02 | 50.26809 | 8.99293 | 6979 ft | 257 kts | 323° |
| 2026-05-04 17:03 | 50.28451 | 8.98231 | 6982 ft | 259 kts | 353° |
| 2026-05-04 17:03 | 50.30234 | 8.98559 | 6982 ft | 261 kts | 22° |
| 2026-05-04 17:03 | 50.32464 | 9.02759 | 6987 ft | 261 kts | 82° |
| 2026-05-04 17:04 | 50.31387 | 9.07865 | 6992 ft | 257 kts | 138° |
| 2026-05-04 17:04 | 50.28594 | 9.11400 | 6984 ft | 258 kts | 144° |
| 2026-05-04 17:05 | 50.25729 | 9.14801 | 6979 ft | 258 kts | 144° |
| 2026-05-04 17:05 | 50.22860 | 9.18191 | 6976 ft | 259 kts | 144° |
| 2026-05-04 17:06 | 50.19818 | 9.21022 | 6974 ft | 254 kts | 174° |
| 2026-05-04 17:06 | 50.18104 | 9.20791 | 6977 ft | 253 kts | 202° |
| 2026-05-04 17:07 | 50.15917 | 9.16833 | 6657 ft | 249 kts | 261° |
| 2026-05-04 17:07 | 50.15895 | 9.15056 | 6415 ft | 249 kts | 278° |
| 2026-05-04 17:07 | 50.16386 | 9.11536 | 6054 ft | 243 kts | 283° |
| 2026-05-04 17:07 | 50.16798 | 9.09074 | 5920 ft | 226 kts | 284° |
| 2026-05-04 17:08 | 50.17013 | 9.06710 | 5676 ft | 217 kts | 264° |
| 2026-05-04 17:08 | 50.16140 | 9.02320 | 5062 ft | 211 kts | 249° |
| 2026-05-04 17:08 | 50.15636 | 9.00173 | 5017 ft | 212 kts | 250° |
| 2026-05-04 17:09 | 50.15126 | 8.97996 | 5020 ft | 214 kts | 250° |
| 2026-05-04 17:09 | 50.14615 | 8.95808 | 5021 ft | 215 kts | 250° |
| 2026-05-04 17:09 | 50.14109 | 8.93647 | 5017 ft | 215 kts | 250° |
| 2026-05-04 17:10 | 50.13112 | 8.89398 | 5023 ft | 202 kts | 250° |
| 2026-05-04 17:10 | 50.11814 | 8.83877 | 4660 ft | 171 kts | 249° |
| 2026-05-04 17:11 | 50.11410 | 8.82158 | 4429 ft | 168 kts | 249° |
| 2026-05-04 17:11 | 50.11005 | 8.80447 | 4195 ft | 168 kts | 249° |
| 2026-05-04 17:11 | 50.10206 | 8.77056 | 3727 ft | 167 kts | 249° |
| 2026-05-04 17:12 | 50.09805 | 8.75359 | 3486 ft | 166 kts | 249° |
| 2026-05-04 17:12 | 50.09010 | 8.71998 | 3020 ft | 165 kts | 249° |
| 2026-05-04 17:13 | 50.07822 | 8.66984 | 2326 ft | 162 kts | 250° |
| 2026-05-04 17:14 | 50.06726 | 8.62377 | 1674 ft | 147 kts | 253° |
| 2026-05-04 17:14 | 50.06376 | 8.60901 | 1469 ft | 147 kts | 253° |
| 2026-05-04 17:14 | 50.05687 | 8.57896 | 1040 ft | 147 kts | 251° |
| 2026-05-04 17:15 | 50.05305 | 8.56421 | 828 ft | 147 kts | 253° |
| 2026-05-04 17:15 | 50.04598 | 8.53447 | 411 ft | 146 kts | 252° |
| 2026-05-04 17:16 | 50.03992 | 8.50901 | 325 ft | 77 kts | 249° |
| 2026-05-04 17:16 | 50.03629 | 8.50273 | 325 ft | 16 kts | 83° |
| 2026-05-04 17:17 | 50.03663 | 8.50432 | 325 ft | 15 kts | 70° |
| 2026-05-04 17:17 | 50.03768 | 8.50873 | 330 ft | 14 kts | 69° |
| 2026-05-04 17:18 | 50.03807 | 8.51032 | 335 ft | 18 kts | 69° |
| 2026-05-04 17:18 | 50.03898 | 8.51409 | 332 ft | 20 kts | 70° |
| 2026-05-04 17:19 | 50.03996 | 8.51818 | 333 ft | 21 kts | 69° |
| 2026-05-04 17:19 | 50.04094 | 8.52234 | 352 ft | 20 kts | 70° |
| 2026-05-04 17:20 | 50.04189 | 8.52627 | 355 ft | 20 kts | 70° |
| 2026-05-04 17:20 | 50.04302 | 8.53101 | 356 ft | 27 kts | 70° |
| 2026-05-04 17:20 | 50.04362 | 8.53352 | 368 ft | 23 kts | 69° |
| 2026-05-04 17:21 | 50.04413 | 8.53784 | 375 ft | 21 kts | 84° |
| 2026-05-04 17:21 | 50.04444 | 8.54252 | 375 ft | 22 kts | 84° |
| 2026-05-04 17:22 | 50.04452 | 8.54461 | 370 ft | 19 kts | 97° |
| 2026-05-04 17:22 | 50.04406 | 8.54651 | 369 ft | 18 kts | 125° |
| 2026-05-04 17:23 | 50.04073 | 8.54908 | 355 ft | 17 kts | 159° |
| 2026-05-04 17:23 | 50.03975 | 8.54966 | 355 ft | 16 kts | 159° |
| 2026-05-04 17:23 | 50.03865 | 8.55185 | 349 ft | 13 kts | 69° |
| 2026-05-04 17:24 | 50.03896 | 8.55308 | 353 ft | 12 kts | 70° |
| 2026-05-04 17:24 | 50.04022 | 8.55841 | 354 ft | 19 kts | 67° |
| 2026-05-04 17:25 | 50.04066 | 8.56016 | 351 ft | 16 kts | 68° |
| 2026-05-04 17:25 | 50.04129 | 8.56291 | 355 ft | 12 kts | 69° |
| 2026-05-04 17:26 | 50.04211 | 8.56632 | 361 ft | 14 kts | 71° |
| 2026-05-04 17:26 | 50.04391 | 8.56841 | 363 ft | 11 kts | 10° |
| 2026-05-04 17:27 | 50.04519 | 8.56879 | 362 ft | 8 kts | 13° |
| 2026-05-04 17:27 | 50.04596 | 8.56814 | 356 ft | 6 kts | 294° |
| 2026-05-04 17:28 | 50.04607 | 8.56773 | 356 ft | 0 kts | 295° |